Merrian, Pennsylvania
Current Conditions -  °F | °C
As of 9:53 PM on Wednesday 22 Oct 2014 (Local Time) from KSEG Reporting Station
Light Rain Light Rain  
Wind Chill: 50°   Ceiling: 2200
Heat Index: 50°   Visibility: 10mi
Dew Point: 44°   Wind: 10mph
Humidity: 80%   Direction: 340°NNW
Pressure: 30"   Gusts: 16mph
Location:  40.7952°N, 76.4365°W
Report Text: KSEG 230153Z AUTO 34009G14KT 10SM -RA OVC022 10/07 A3000 RMK AO2 SLP159 P0000 T01000067
Loading
Personal Weather Stations






























Interactive Weather Map
Tropical Storm Tracking
New forecast layout! Learn more

10-Day Weather Forecast

Advertisements
Track Severe Weather on mobile